sensor_id;sensor_type;location;lat;lon;timestamp;pressure;altitude;pressure_sealevel;temperature;humidity
15914;BME280;8055;51.930;8.840;2023-01-04T00:01:02;77101.63;;;-145.72;100.00
15914;BME280;8055;51.930;8.840;2023-01-04T00:03:27;77099.56;;;-145.72;100.00
15914;BME280;8055;51.930;8.840;2023-01-04T00:05:53;77095.41;;;-145.72;100.00
15914;BME280;8055;51.930;8.840;2023-01-04T00:08:18;77093.34;;;-145.72;100.00
15914;BME280;8055;51.930;8.840;2023-01-04T00:10:44;77091.28;;;-145.72;100.00
15914;BME280;8055;51.930;8.840;2023-01-04T00:13:09;77072.66;;;-145.72;100.00
15914;BME280;8055;51.930;8.840;2023-01-04T00:15:34;77070.56;;;-145.72;100.00
15914;BME280;8055;51.930;8.840;2023-01-04T00:18:00;77074.72;;;-145.72;100.00
15914;BME280;8055;51.930;8.840;2023-01-04T00:20:25;77066.44;;;-145.72;100.00
15914;BME280;8055;51.930;8.840;2023-01-04T00:22:51;77049.88;;;-145.72;100.00
15914;BME280;8055;51.930;8.840;2023-01-04T00:25:16;77051.94;;;-145.72;100.00
15914;BME280;8055;51.930;8.840;2023-01-04T00:27:41;77047.81;;;-145.72;100.00
15914;BME280;8055;51.930;8.840;2023-01-04T00:30:07;77041.59;;;-145.72;100.00
15914;BME280;8055;51.930;8.840;2023-01-04T00:32:33;77041.59;;;-145.72;100.00
15914;BME280;8055;51.930;8.840;2023-01-04T00:34:58;77037.47;;;-145.72;100.00
15914;BME280;8055;51.930;8.840;2023-01-04T00:37:24;77033.31;;;-145.72;100.00
15914;BME280;8055;51.930;8.840;2023-01-04T00:39:49;77033.31;;;-145.72;100.00
15914;BME280;8055;51.930;8.840;2023-01-04T00:42:14;77031.25;;;-145.72;100.00
15914;BME280;8055;51.930;8.840;2023-01-04T00:44:40;77025.03;;;-145.72;100.00
15914;BME280;8055;51.930;8.840;2023-01-04T00:47:05;77033.31;;;-145.72;100.00
15914;BME280;8055;51.930;8.840;2023-01-04T00:49:30;77018.84;;;-145.72;100.00
15914;BME280;8055;51.930;8.840;2023-01-04T00:51:56;77016.75;;;-145.72;100.00
15914;BME280;8055;51.930;8.840;2023-01-04T00:54:22;77016.75;;;-145.72;100.00
15914;BME280;8055;51.930;8.840;2023-01-04T00:56:48;77008.47;;;-145.72;100.00
15914;BME280;8055;51.930;8.840;2023-01-04T00:59:16;77020.91;;;-145.72;100.00
15914;BME280;8055;51.930;8.840;2023-01-04T01:01:42;77020.91;;;-145.72;100.00
15914;BME280;8055;51.930;8.840;2023-01-04T01:04:09;77014.69;;;-145.72;100.00
15914;BME280;8055;51.930;8.840;2023-01-04T01:06:35;77012.63;;;-145.72;100.00
15914;BME280;8055;51.930;8.840;2023-01-04T01:09:01;77010.56;;;-145.72;100.00
15914;BME280;8055;51.930;8.840;2023-01-04T01:11:27;77006.41;;;-145.72;100.00
15914;BME280;8055;51.930;8.840;2023-01-04T01:13:53;76998.13;;;-145.72;100.00
15914;BME280;8055;51.930;8.840;2023-01-04T01:16:20;76987.78;;;-145.72;100.00
15914;BME280;8055;51.930;8.840;2023-01-04T01:18:46;76991.94;;;-145.72;100.00
15914;BME280;8055;51.930;8.840;2023-01-04T01:21:15;76975.38;;;-145.72;100.00
15914;BME280;8055;51.930;8.840;2023-01-04T01:23:40;76975.38;;;-145.72;100.00
15914;BME280;8055;51.930;8.840;2023-01-04T01:26:10;76967.09;;;-145.72;100.00
15914;BME280;8055;51.930;8.840;2023-01-04T01:28:35;76958.81;;;-145.72;100.00
15914;BME280;8055;51.930;8.840;2023-01-04T01:31:09;76946.38;;;-145.72;100.00
15914;BME280;8055;51.930;8.840;2023-01-04T01:33:39;76952.59;;;-145.72;100.00
15914;BME280;8055;51.930;8.840;2023-01-04T01:36:06;76942.25;;;-145.72;100.00
15914;BME280;8055;51.930;8.840;2023-01-04T01:38:31;76923.63;;;-145.72;100.00
15914;BME280;8055;51.930;8.840;2023-01-04T01:40:57;76923.63;;;-145.72;100.00
15914;BME280;8055;51.930;8.840;2023-01-04T01:43:50;76915.34;;;-145.72;100.00
15914;BME280;8055;51.930;8.840;2023-01-04T01:46:43;76915.34;;;-145.72;100.00
15914;BME280;8055;51.930;8.840;2023-01-04T01:49:15;76919.47;;;-145.72;100.00
15914;BME280;8055;51.930;8.840;2023-01-04T01:51:45;76907.06;;;-145.72;100.00
15914;BME280;8055;51.930;8.840;2023-01-04T01:54:18;76890.50;;;-145.72;100.00
15914;BME280;8055;51.930;8.840;2023-01-04T01:56:47;76898.78;;;-145.72;100.00
15914;BME280;8055;51.930;8.840;2023-01-04T01:59:14;76882.22;;;-145.72;100.00
15914;BME280;8055;51.930;8.840;2023-01-04T02:01:40;76867.72;;;-145.72;100.00
15914;BME280;8055;51.930;8.840;2023-01-04T02:04:06;76851.19;;;-145.72;100.00
15914;BME280;8055;51.930;8.840;2023-01-04T02:06:36;76840.81;;;-145.72;100.00
15914;BME280;8055;51.930;8.840;2023-01-04T02:09:02;76824.28;;;-145.72;100.00
15914;BME280;8055;51.930;8.840;2023-01-04T02:11:28;76818.06;;;-145.72;100.00
15914;BME280;8055;51.930;8.840;2023-01-04T02:13:54;76809.78;;;-145.72;100.00
15914;BME280;8055;51.930;8.840;2023-01-04T02:16:55;76811.84;;;-145.72;100.00
15914;BME280;8055;51.930;8.840;2023-01-04T02:27:54;76768.38;;;-145.72;100.00
15914;BME280;8055;51.930;8.840;2023-01-04T02:30:50;76747.69;;;-145.72;100.00
15914;BME280;8055;51.930;8.840;2023-01-04T02:38:22;76729.06;;;-145.72;100.00
15914;BME280;8055;51.930;8.840;2023-01-04T02:41:04;76727.00;;;-145.72;100.00
15914;BME280;8055;51.930;8.840;2023-01-04T02:44:10;76712.50;;;-145.72;100.00
15914;BME280;8055;51.930;8.840;2023-01-04T02:50:18;76727.00;;;-145.72;100.00
15914;BME280;8055;51.930;8.840;2023-01-04T02:53:17;76727.00;;;-145.72;100.00
15914;BME280;8055;51.930;8.840;2023-01-04T02:55:55;76722.84;;;-145.72;100.00
15914;BME280;8055;51.930;8.840;2023-01-04T03:07:51;76716.66;;;-145.72;100.00
15914;BME280;8055;51.930;8.840;2023-01-04T03:12:53;76702.16;;;-145.72;100.00
15914;BME280;8055;51.930;8.840;2023-01-04T03:15:25;76714.56;;;-145.72;100.00
15914;BME280;8055;51.930;8.840;2023-01-04T03:17:56;76712.50;;;-145.72;100.00
15914;BME280;8055;51.930;8.840;2023-01-04T03:20:24;76710.44;;;-145.72;100.00
15914;BME280;8055;51.930;8.840;2023-01-04T03:23:13;76708.38;;;-145.72;100.00
15914;BME280;8055;51.930;8.840;2023-01-04T03:26:08;76704.22;;;-145.72;100.00
15914;BME280;8055;51.930;8.840;2023-01-04T03:28:54;76708.38;;;-145.72;100.00
15914;BME280;8055;51.930;8.840;2023-01-04T03:31:48;76693.88;;;-145.72;100.00
15914;BME280;8055;51.930;8.840;2023-01-04T03:34:33;76683.53;;;-145.72;100.00
15914;BME280;8055;51.930;8.840;2023-01-04T03:45:51;76687.66;;;-145.72;100.00
15914;BME280;8055;51.930;8.840;2023-01-04T03:48:42;76681.47;;;-145.72;100.00
15914;BME280;8055;51.930;8.840;2023-01-04T03:51:16;76673.19;;;-145.72;100.00
15914;BME280;8055;51.930;8.840;2023-01-04T03:54:07;76677.31;;;-145.72;100.00
15914;BME280;8055;51.930;8.840;2023-01-04T03:56:38;76662.81;;;-145.72;100.00
15914;BME280;8055;51.930;8.840;2023-01-04T03:59:06;76662.81;;;-145.72;100.00
15914;BME280;8055;51.930;8.840;2023-01-04T04:01:33;76650.41;;;-145.72;100.00
15914;BME280;8055;51.930;8.840;2023-01-04T04:03:59;76652.47;;;-145.72;100.00
15914;BME280;8055;51.930;8.840;2023-01-04T04:06:42;76638.00;;;-145.72;100.00
15914;BME280;8055;51.930;8.840;2023-01-04T04:09:26;76627.66;;;-145.72;100.00
15914;BME280;8055;51.930;8.840;2023-01-04T04:11:51;76621.44;;;-145.72;100.00
15914;BME280;8055;51.930;8.840;2023-01-04T04:14:17;76611.09;;;-145.72;100.00
15914;BME280;8055;51.930;8.840;2023-01-04T04:16:42;76611.09;;;-145.72;100.00
15914;BME280;8055;51.930;8.840;2023-01-04T04:19:07;76598.66;;;-145.72;100.00
15914;BME280;8055;51.930;8.840;2023-01-04T04:21:33;76615.22;;;-145.72;100.00
15914;BME280;8055;51.930;8.840;2023-01-04T04:23:58;76609.00;;;-145.72;100.00
15914;BME280;8055;51.930;8.840;2023-01-04T04:26:24;76596.59;;;-145.72;100.00
15914;BME280;8055;51.930;8.840;2023-01-04T04:28:49;76592.47;;;-145.72;100.00
15914;BME280;8055;51.930;8.840;2023-01-04T04:31:15;76590.38;;;-145.72;100.00
15914;BME280;8055;51.930;8.840;2023-01-04T04:33:40;76590.38;;;-145.72;100.00
15914;BME280;8055;51.930;8.840;2023-01-04T04:36:06;76588.31;;;-145.72;100.00
15914;BME280;8055;51.930;8.840;2023-01-04T04:38:32;76582.13;;;-145.72;100.00
15914;BME280;8055;51.930;8.840;2023-01-04T04:40:58;76569.69;;;-145.72;100.00
15914;BME280;8055;51.930;8.840;2023-01-04T04:43:42;76577.97;;;-145.72;100.00
15914;BME280;8055;51.930;8.840;2023-01-04T04:46:07;76553.13;;;-145.72;100.00
15914;BME280;8055;51.930;8.840;2023-01-04T04:48:33;76555.22;;;-145.72;100.00
15914;BME280;8055;51.930;8.840;2023-01-04T04:50:58;76559.34;;;-145.72;100.00
15914;BME280;8055;51.930;8.840;2023-01-04T04:53:24;76561.41;;;-145.72;100.00
15914;BME280;8055;51.930;8.840;2023-01-04T04:55:50;76546.94;;;-145.72;100.00
15914;BME280;8055;51.930;8.840;2023-01-04T04:58:16;76526.22;;;-145.72;100.00
15914;BME280;8055;51.930;8.840;2023-01-04T05:00:42;76528.31;;;-145.72;100.00
15914;BME280;8055;51.930;8.840;2023-01-04T05:03:07;76528.31;;;-145.72;100.00
15914;BME280;8055;51.930;8.840;2023-01-04T05:05:33;76520.03;;;-145.72;100.00
15914;BME280;8055;51.930;8.840;2023-01-04T05:07:58;76515.88;;;-145.72;100.00
15914;BME280;8055;51.930;8.840;2023-01-04T05:10:24;76515.88;;;-145.72;100.00
15914;BME280;8055;51.930;8.840;2023-01-04T05:12:49;76495.19;;;-145.72;100.00
15914;BME280;8055;51.930;8.840;2023-01-04T05:15:28;76511.75;;;-145.72;100.00
15914;BME280;8055;51.930;8.840;2023-01-04T05:17:54;76488.97;;;-145.72;100.00
15914;BME280;8055;51.930;8.840;2023-01-04T05:20:20;76484.84;;;-145.72;100.00
15914;BME280;8055;51.930;8.840;2023-01-04T05:22:45;76474.50;;;-145.72;100.00
15914;BME280;8055;51.930;8.840;2023-01-04T05:25:11;76476.56;;;-145.72;100.00
15914;BME280;8055;51.930;8.840;2023-01-04T05:27:37;76470.34;;;-145.72;100.00
15914;BME280;8055;51.930;8.840;2023-01-04T05:30:04;76476.56;;;-145.72;100.00
15914;BME280;8055;51.930;8.840;2023-01-04T05:32:48;76476.56;;;-145.72;100.00
15914;BME280;8055;51.930;8.840;2023-01-04T05:35:13;76470.34;;;-145.72;100.00
15914;BME280;8055;51.930;8.840;2023-01-04T05:37:39;76474.50;;;-145.72;100.00
15914;BME280;8055;51.930;8.840;2023-01-04T05:40:04;76486.91;;;-145.72;100.00
15914;BME280;8055;51.930;8.840;2023-01-04T05:42:30;76470.34;;;-145.72;100.00
15914;BME280;8055;51.930;8.840;2023-01-04T05:44:56;76472.41;;;-145.72;100.00
15914;BME280;8055;51.930;8.840;2023-01-04T05:47:23;76457.94;;;-145.72;100.00
15914;BME280;8055;51.930;8.840;2023-01-04T05:49:49;76466.22;;;-145.72;100.00
15914;BME280;8055;51.930;8.840;2023-01-04T05:52:15;76466.22;;;-145.72;100.00
15914;BME280;8055;51.930;8.840;2023-01-04T05:54:41;76476.56;;;-145.72;100.00
15914;BME280;8055;51.930;8.840;2023-01-04T05:57:07;76445.53;;;-145.72;100.00
15914;BME280;8055;51.930;8.840;2023-01-04T05:59:32;76441.38;;;-145.72;100.00
15914;BME280;8055;51.930;8.840;2023-01-04T06:01:57;76447.59;;;-145.72;100.00
15914;BME280;8055;51.930;8.840;2023-01-04T06:04:23;76437.25;;;-145.72;100.00
15914;BME280;8055;51.930;8.840;2023-01-04T06:06:48;76433.09;;;-145.72;100.00
15914;BME280;8055;51.930;8.840;2023-01-04T06:09:14;76422.75;;;-145.72;100.00
15914;BME280;8055;51.930;8.840;2023-01-04T06:11:39;76424.81;;;-145.72;100.00
15914;BME280;8055;51.930;8.840;2023-01-04T06:14:04;76418.63;;;-145.72;100.00
15914;BME280;8055;51.930;8.840;2023-01-04T06:16:30;76408.25;;;-145.72;100.00
15914;BME280;8055;51.930;8.840;2023-01-04T06:18:55;76400.00;;;-145.72;100.00
15914;BME280;8055;51.930;8.840;2023-01-04T06:21:20;76387.56;;;-145.72;100.00
15914;BME280;8055;51.930;8.840;2023-01-04T06:23:46;76391.72;;;-145.72;100.00
15914;BME280;8055;51.930;8.840;2023-01-04T06:26:12;76402.06;;;-145.72;100.00
15914;BME280;8055;51.930;8.840;2023-01-04T06:28:37;76385.50;;;-145.72;100.00
15914;BME280;8055;51.930;8.840;2023-01-04T06:31:07;76385.50;;;-145.72;100.00
15914;BME280;8055;51.930;8.840;2023-01-04T06:33:33;76375.16;;;-145.72;100.00
15914;BME280;8055;51.930;8.840;2023-01-04T06:35:59;76375.16;;;-145.72;100.00
15914;BME280;8055;51.930;8.840;2023-01-04T06:38:24;76368.94;;;-145.72;100.00
15914;BME280;8055;51.930;8.840;2023-01-04T06:40:50;76375.16;;;-145.72;100.00
15914;BME280;8055;51.930;8.840;2023-01-04T06:43:16;76356.53;;;-145.72;100.00
15914;BME280;8055;51.930;8.840;2023-01-04T06:45:41;76354.47;;;-145.72;100.00
15914;BME280;8055;51.930;8.840;2023-01-04T06:48:07;76358.59;;;-145.72;100.00
15914;BME280;8055;51.930;8.840;2023-01-04T06:50:32;76339.97;;;-145.72;100.00
15914;BME280;8055;51.930;8.840;2023-01-04T06:52:58;76342.03;;;-145.72;100.00
15914;BME280;8055;51.930;8.840;2023-01-04T06:55:23;76335.84;;;-145.72;100.00
15914;BME280;8055;51.930;8.840;2023-01-04T06:57:48;76323.41;;;-145.72;100.00
15914;BME280;8055;51.930;8.840;2023-01-04T07:00:14;76329.63;;;-145.72;100.00
15914;BME280;8055;51.930;8.840;2023-01-04T07:02:40;76323.41;;;-145.72;100.00
15914;BME280;8055;51.930;8.840;2023-01-04T07:05:05;76315.13;;;-145.72;100.00
15914;BME280;8055;51.930;8.840;2023-01-04T07:07:32;76311.00;;;-145.72;100.00
15914;BME280;8055;51.930;8.840;2023-01-04T07:09:58;76319.28;;;-145.72;100.00
15914;BME280;8055;51.930;8.840;2023-01-04T07:12:23;76302.72;;;-145.72;100.00
15914;BME280;8055;51.930;8.840;2023-01-04T07:14:50;76296.50;;;-145.72;100.00
15914;BME280;8055;51.930;8.840;2023-01-04T07:17:15;76296.50;;;-145.72;100.00
15914;BME280;8055;51.930;8.840;2023-01-04T07:19:40;76304.78;;;-145.72;100.00
15914;BME280;8055;51.930;8.840;2023-01-04T07:22:06;76288.22;;;-145.72;100.00
15914;BME280;8055;51.930;8.840;2023-01-04T07:24:31;76296.50;;;-145.72;100.00
15914;BME280;8055;51.930;8.840;2023-01-04T07:27:00;76275.81;;;-145.72;100.00
15914;BME280;8055;51.930;8.840;2023-01-04T07:29:25;76279.97;;;-145.72;100.00
15914;BME280;8055;51.930;8.840;2023-01-04T07:31:51;76265.47;;;-145.72;100.00
15914;BME280;8055;51.930;8.840;2023-01-04T07:34:19;76261.34;;;-145.72;100.00
15914;BME280;8055;51.930;8.840;2023-01-04T07:36:45;76275.81;;;-145.72;100.00
15914;BME280;8055;51.930;8.840;2023-01-04T07:39:11;76253.06;;;-145.72;100.00
15914;BME280;8055;51.930;8.840;2023-01-04T07:41:40;76244.78;;;-145.72;100.00
15914;BME280;8055;51.930;8.840;2023-01-04T07:44:06;76253.06;;;-145.72;100.00
15914;BME280;8055;51.930;8.840;2023-01-04T07:46:33;76246.84;;;-145.72;100.00
15914;BME280;8055;51.930;8.840;2023-01-04T07:48:59;76226.16;;;-145.72;100.00
15914;BME280;8055;51.930;8.840;2023-01-04T07:51:24;76238.56;;;-145.72;100.00
15914;BME280;8055;51.930;8.840;2023-01-04T07:53:50;76244.78;;;-145.72;100.00
15914;BME280;8055;51.930;8.840;2023-01-04T07:56:16;76255.13;;;-145.72;100.00
15914;BME280;8055;51.930;8.840;2023-01-04T07:58:41;76248.91;;;-145.72;100.00
15914;BME280;8055;51.930;8.840;2023-01-04T08:01:13;76255.13;;;-145.72;100.00
15914;BME280;8055;51.930;8.840;2023-01-04T08:03:39;76248.91;;;-145.72;100.00
15914;BME280;8055;51.930;8.840;2023-01-04T08:06:05;76234.44;;;-145.72;100.00
15914;BME280;8055;51.930;8.840;2023-01-04T08:08:31;76242.72;;;-145.72;100.00
15914;BME280;8055;51.930;8.840;2023-01-04T08:11:01;76234.44;;;-145.72;100.00
15914;BME280;8055;51.930;8.840;2023-01-04T08:13:27;76230.28;;;-145.72;100.00
15914;BME280;8055;51.930;8.840;2023-01-04T08:15:53;76234.44;;;-145.72;100.00
15914;BME280;8055;51.930;8.840;2023-01-04T08:18:18;76224.09;;;-145.72;100.00
15914;BME280;8055;51.930;8.840;2023-01-04T08:20:43;76226.16;;;-145.72;100.00
15914;BME280;8055;51.930;8.840;2023-01-04T08:23:09;76217.88;;;-145.72;100.00
15914;BME280;8055;51.930;8.840;2023-01-04T08:25:34;76205.44;;;-145.72;100.00
15914;BME280;8055;51.930;8.840;2023-01-04T08:28:00;76215.81;;;-145.72;100.00
15914;BME280;8055;51.930;8.840;2023-01-04T08:30:25;76217.88;;;-145.72;100.00
15914;BME280;8055;51.930;8.840;2023-01-04T08:32:50;76217.88;;;-145.72;100.00
15914;BME280;8055;51.930;8.840;2023-01-04T08:35:18;76215.81;;;-145.72;100.00
15914;BME280;8055;51.930;8.840;2023-01-04T08:37:43;76219.94;;;-145.72;100.00
15914;BME280;8055;51.930;8.840;2023-01-04T08:40:09;76230.28;;;-145.72;100.00
15914;BME280;8055;51.930;8.840;2023-01-04T08:42:34;76226.16;;;-145.72;100.00
15914;BME280;8055;51.930;8.840;2023-01-04T08:45:00;76226.16;;;-145.72;100.00
15914;BME280;8055;51.930;8.840;2023-01-04T08:47:27;76217.88;;;-145.72;100.00
15914;BME280;8055;51.930;8.840;2023-01-04T08:49:53;76213.72;;;-145.72;100.00
15914;BME280;8055;51.930;8.840;2023-01-04T08:52:18;76211.66;;;-145.72;100.00
15914;BME280;8055;51.930;8.840;2023-01-04T08:54:44;76211.66;;;-145.72;100.00
15914;BME280;8055;51.930;8.840;2023-01-04T08:57:09;76209.59;;;-145.72;100.00
15914;BME280;8055;51.930;8.840;2023-01-04T08:59:35;76203.38;;;-145.72;100.00
15914;BME280;8055;51.930;8.840;2023-01-04T09:02:00;76207.53;;;-145.72;100.00
15914;BME280;8055;51.930;8.840;2023-01-04T09:04:26;76193.03;;;-145.72;100.00
15914;BME280;8055;51.930;8.840;2023-01-04T09:06:51;76190.97;;;-145.72;100.00
15914;BME280;8055;51.930;8.840;2023-01-04T09:09:16;76193.03;;;-145.72;100.00
15914;BME280;8055;51.930;8.840;2023-01-04T09:11:42;76184.75;;;-145.72;100.00
15914;BME280;8055;51.930;8.840;2023-01-04T09:14:08;76178.56;;;-145.72;100.00
15914;BME280;8055;51.930;8.840;2023-01-04T09:16:36;76184.75;;;-145.72;100.00
15914;BME280;8055;51.930;8.840;2023-01-04T09:19:02;76188.91;;;-145.72;100.00
15914;BME280;8055;51.930;8.840;2023-01-04T09:21:27;76201.31;;;-145.72;100.00
15914;BME280;8055;51.930;8.840;2023-01-04T09:23:52;76199.25;;;-145.72;100.00
15914;BME280;8055;51.930;8.840;2023-01-04T09:26:20;76182.69;;;-145.72;100.00
15914;BME280;8055;51.930;8.840;2023-01-04T09:28:47;76193.03;;;-145.72;100.00
15914;BME280;8055;51.930;8.840;2023-01-04T09:31:15;76188.91;;;-145.72;100.00
15914;BME280;8055;51.930;8.840;2023-01-04T09:33:41;76170.28;;;-145.72;100.00
15914;BME280;8055;51.930;8.840;2023-01-04T09:36:08;76164.06;;;-145.72;100.00
15914;BME280;8055;51.930;8.840;2023-01-04T09:38:35;76172.34;;;-145.72;100.00
15914;BME280;8055;51.930;8.840;2023-01-04T09:41:13;76172.34;;;-145.72;100.00
15914;BME280;8055;51.930;8.840;2023-01-04T09:43:56;76174.41;;;-145.72;100.00
15914;BME280;8055;51.930;8.840;2023-01-04T09:48:57;76178.56;;;-145.72;100.00
15914;BME280;8055;51.930;8.840;2023-01-04T09:51:31;76164.06;;;-145.72;100.00
15914;BME280;8055;51.930;8.840;2023-01-04T09:54:05;76159.94;;;-145.72;100.00
15914;BME280;8055;51.930;8.840;2023-01-04T09:56:35;76153.72;;;-145.72;100.00
15914;BME280;8055;51.930;8.840;2023-01-04T09:59:05;76149.56;;;-145.72;100.00
15914;BME280;8055;51.930;8.840;2023-01-04T10:01:51;76159.94;;;-145.72;100.00
15914;BME280;8055;51.930;8.840;2023-01-04T10:06:56;76151.66;;;-145.72;100.00
15914;BME280;8055;51.930;8.840;2023-01-04T10:09:21;76143.38;;;-145.72;100.00
15914;BME280;8055;51.930;8.840;2023-01-04T10:12:09;76126.81;;;-145.72;100.00
15914;BME280;8055;51.930;8.840;2023-01-04T10:14:49;76126.81;;;-145.72;100.00
15914;BME280;8055;51.930;8.840;2023-01-04T10:17:42;76116.47;;;-145.72;100.00
15914;BME280;8055;51.930;8.840;2023-01-04T10:25:48;76122.69;;;-145.72;100.00
15914;BME280;8055;51.930;8.840;2023-01-04T10:33:48;76114.41;;;-145.72;100.00
15914;BME280;8055;51.930;8.840;2023-01-04T10:36:20;76106.13;;;-145.72;100.00
15914;BME280;8055;51.930;8.840;2023-01-04T10:38:48;76128.88;;;-145.72;100.00
15914;BME280;8055;51.930;8.840;2023-01-04T10:41:20;76116.47;;;-145.72;100.00
15914;BME280;8055;51.930;8.840;2023-01-04T10:44:23;76108.19;;;-145.72;100.00
15914;BME280;8055;51.930;8.840;2023-01-04T10:46:52;76097.84;;;-145.72;100.00
15914;BME280;8055;51.930;8.840;2023-01-04T10:51:59;76093.72;;;-145.72;100.00
15914;BME280;8055;51.930;8.840;2023-01-04T10:54:53;76093.72;;;-145.72;100.00
15914;BME280;8055;51.930;8.840;2023-01-04T11:05:36;76070.94;;;-145.72;100.00
15914;BME280;8055;51.930;8.840;2023-01-04T11:08:22;76064.72;;;-145.72;100.00
15914;BME280;8055;51.930;8.840;2023-01-04T11:11:08;76050.25;;;-145.72;100.00
15914;BME280;8055;51.930;8.840;2023-01-04T11:13:34;76039.91;;;-145.72;100.00
15914;BME280;8055;51.930;8.840;2023-01-04T11:16:03;76056.47;;;-145.72;100.00
15914;BME280;8055;51.930;8.840;2023-01-04T11:18:30;76050.25;;;-145.72;100.00
15914;BME280;8055;51.930;8.840;2023-01-04T11:20:56;76052.31;;;-145.72;100.00
15914;BME280;8055;51.930;8.840;2023-01-04T11:23:21;76060.59;;;-145.72;100.00
15914;BME280;8055;51.930;8.840;2023-01-04T11:25:51;76046.09;;;-145.72;100.00
15914;BME280;8055;51.930;8.840;2023-01-04T11:31:04;76046.09;;;-145.72;100.00
15914;BME280;8055;51.930;8.840;2023-01-04T11:34:09;76039.91;;;-145.72;100.00
15914;BME280;8055;51.930;8.840;2023-01-04T11:36:45;76035.75;;;-145.72;100.00
15914;BME280;8055;51.930;8.840;2023-01-04T11:39:22;76023.34;;;-145.72;100.00
15914;BME280;8055;51.930;8.840;2023-01-04T11:41:59;76015.06;;;-145.72;100.00
15914;BME280;8055;51.930;8.840;2023-01-04T11:44:27;76017.13;;;-145.72;100.00
15914;BME280;8055;51.930;8.840;2023-01-04T11:47:10;76019.22;;;-145.72;100.00
15914;BME280;8055;51.930;8.840;2023-01-04T11:49:40;76023.34;;;-145.72;100.00
15914;BME280;8055;51.930;8.840;2023-01-04T11:52:29;76013.00;;;-145.72;100.00
15914;BME280;8055;51.930;8.840;2023-01-04T11:54:55;76025.41;;;-145.72;100.00
15914;BME280;8055;51.930;8.840;2023-01-04T11:57:21;76008.84;;;-145.72;100.00
15914;BME280;8055;51.930;8.840;2023-01-04T12:00:13;76010.94;;;-145.72;100.00
15914;BME280;8055;51.930;8.840;2023-01-04T12:02:38;76006.78;;;-145.72;100.00
15914;BME280;8055;51.930;8.840;2023-01-04T12:05:30;76008.84;;;-145.72;100.00
15914;BME280;8055;51.930;8.840;2023-01-04T12:07:57;75994.38;;;-145.72;100.00
15914;BME280;8055;51.930;8.840;2023-01-04T12:10:25;75984.03;;;-145.72;100.00
15914;BME280;8055;51.930;8.840;2023-01-04T12:12:52;75990.25;;;-145.72;100.00
15914;BME280;8055;51.930;8.840;2023-01-04T12:15:26;76000.59;;;-145.72;100.00
15914;BME280;8055;51.930;8.840;2023-01-04T12:18:18;75984.03;;;-145.72;100.00
15914;BME280;8055;51.930;8.840;2023-01-04T12:20:45;75973.69;;;-145.72;100.00
15914;BME280;8055;51.930;8.840;2023-01-04T12:23:11;75973.69;;;-145.72;100.00
15914;BME280;8055;51.930;8.840;2023-01-04T12:25:40;75979.88;;;-145.72;100.00
15914;BME280;8055;51.930;8.840;2023-01-04T12:28:42;75977.81;;;-145.72;100.00
15914;BME280;8055;51.930;8.840;2023-01-04T12:33:53;75961.25;;;-145.72;100.00
15914;BME280;8055;51.930;8.840;2023-01-04T12:54:59;75936.44;;;-145.72;100.00
15914;BME280;8055;51.930;8.840;2023-01-04T12:57:31;75950.91;;;-145.72;100.00
15914;BME280;8055;51.930;8.840;2023-01-04T13:00:02;75934.38;;;-145.72;100.00
15914;BME280;8055;51.930;8.840;2023-01-04T13:02:44;75936.44;;;-145.72;100.00
15914;BME280;8055;51.930;8.840;2023-01-04T13:08:08;75919.88;;;-145.72;100.00
15914;BME280;8055;51.930;8.840;2023-01-04T13:10:41;75915.75;;;-145.72;100.00
15914;BME280;8055;51.930;8.840;2023-01-04T13:13:18;75905.41;;;-145.72;100.00
15914;BME280;8055;51.930;8.840;2023-01-04T13:18:26;75895.03;;;-145.72;100.00
15914;BME280;8055;51.930;8.840;2023-01-04T13:20:56;75897.13;;;-145.72;100.00
15914;BME280;8055;51.930;8.840;2023-01-04T13:23:24;75886.78;;;-145.72;100.00
15914;BME280;8055;51.930;8.840;2023-01-04T13:25:50;75872.28;;;-145.72;100.00
15914;BME280;8055;51.930;8.840;2023-01-04T13:28:17;75886.78;;;-145.72;100.00
15914;BME280;8055;51.930;8.840;2023-01-04T13:30:44;75876.44;;;-145.72;100.00
15914;BME280;8055;51.930;8.840;2023-01-04T13:33:19;75890.91;;;-145.72;100.00
15914;BME280;8055;51.930;8.840;2023-01-04T13:36:17;75866.06;;;-145.72;100.00
15914;BME280;8055;51.930;8.840;2023-01-04T13:38:43;75866.06;;;-145.72;100.00
15914;BME280;8055;51.930;8.840;2023-01-04T13:41:20;75874.34;;;-145.72;100.00
15914;BME280;8055;51.930;8.840;2023-01-04T13:44:04;75874.34;;;-145.72;100.00
15914;BME280;8055;51.930;8.840;2023-01-04T13:46:33;75878.50;;;-145.72;100.00
15914;BME280;8055;51.930;8.840;2023-01-04T13:49:00;75855.72;;;-145.72;100.00
15914;BME280;8055;51.930;8.840;2023-01-04T13:51:31;75866.06;;;-145.72;100.00
15914;BME280;8055;51.930;8.840;2023-01-04T13:54:03;75855.72;;;-145.72;100.00
15914;BME280;8055;51.930;8.840;2023-01-04T13:56:31;75855.72;;;-145.72;100.00
15914;BME280;8055;51.930;8.840;2023-01-04T13:58:57;75837.09;;;-145.72;100.00
15914;BME280;8055;51.930;8.840;2023-01-04T14:01:26;75839.19;;;-145.72;100.00
15914;BME280;8055;51.930;8.840;2023-01-04T14:04:01;75837.09;;;-145.72;100.00
15914;BME280;8055;51.930;8.840;2023-01-04T14:06:30;75814.34;;;-145.72;100.00
15914;BME280;8055;51.930;8.840;2023-01-04T14:09:00;75826.75;;;-145.72;100.00
15914;BME280;8055;51.930;8.840;2023-01-04T14:11:34;75799.88;;;-145.72;100.00
15914;BME280;8055;51.930;8.840;2023-01-04T14:14:50;75822.63;;;-145.72;100.00
15914;BME280;8055;51.930;8.840;2023-01-04T14:17:46;75810.22;;;-145.72;100.00
15914;BME280;8055;51.930;8.840;2023-01-04T14:22:49;75820.56;;;-145.72;100.00
15914;BME280;8055;51.930;8.840;2023-01-04T14:36:12;75816.41;;;-145.72;100.00
15914;BME280;8055;51.930;8.840;2023-01-04T14:38:39;75812.28;;;-145.72;100.00
15914;BME280;8055;51.930;8.840;2023-01-04T14:41:10;75783.31;;;-145.72;100.00
15914;BME280;8055;51.930;8.840;2023-01-04T14:43:43;75772.97;;;-145.72;100.00